SJV659 WAHS-WIII
Flight info
| Callsign | SJV659 |
|---|---|
| Flight time | 0h 46m |
| Altitude | 28000 |
| Route | KIDET W16 IMU |
| Aircraft | A320/M-SDE3FGHIRWY/LB1 |
Departure
| Time | 2026-04-17 09:55 |
|---|---|
| Airport | Jenderal Ahmad Yani Airport (WAHS) |
Arrival
| Time | 2026-04-17 10:41 |
|---|---|
| Airport | Soekarno-Hatta International Airport (WIII) |
| Time | Latitude | Longitude | Altitude | Speed | Heading |
|---|---|---|---|---|---|
| 2026-04-17 09:41 | -6.96689 | 110.37422 | 18 ft | 0 kts | 41° |
| 2026-04-17 09:43 | -6.96697 | 110.37415 | 20 ft | 2 kts | 41° |
| 2026-04-17 09:44 | -6.96709 | 110.37404 | 22 ft | 2 kts | 40° |
| 2026-04-17 09:44 | -6.96722 | 110.37393 | 21 ft | 2 kts | 39° |
| 2026-04-17 09:44 | -6.96735 | 110.37383 | 20 ft | 2 kts | 43° |
| 2026-04-17 09:44 | -6.96743 | 110.37369 | 20 ft | 2 kts | 119° |
| 2026-04-17 09:45 | -6.96737 | 110.37360 | 19 ft | 1 kts | 129° |
| 2026-04-17 09:45 | -6.96736 | 110.37359 | 19 ft | 0 kts | 129° |
| 2026-04-17 09:49 | -6.96736 | 110.37360 | 19 ft | 0 kts | 129° |
| 2026-04-17 09:49 | -6.96742 | 110.37366 | 20 ft | 3 kts | 131° |
| 2026-04-17 09:50 | -6.96764 | 110.37392 | 20 ft | 7 kts | 129° |
| 2026-04-17 09:50 | -6.96802 | 110.37438 | 18 ft | 8 kts | 129° |
| 2026-04-17 09:50 | -6.96840 | 110.37484 | 18 ft | 10 kts | 129° |
| 2026-04-17 09:50 | -6.96884 | 110.37537 | 18 ft | 8 kts | 131° |
| 2026-04-17 09:51 | -6.96929 | 110.37550 | 18 ft | 7 kts | 211° |
| 2026-04-17 09:51 | -6.96989 | 110.37509 | 17 ft | 15 kts | 219° |
| 2026-04-17 09:51 | -6.97035 | 110.37471 | 14 ft | 0 kts | 219° |
| 2026-04-17 09:52 | -6.97052 | 110.37456 | 11 ft | 10 kts | 219° |
| 2026-04-17 09:52 | -6.97152 | 110.37429 | 3 ft | 19 kts | 149° |
| 2026-04-17 09:52 | -6.97234 | 110.37527 | 4 ft | 19 kts | 129° |
| 2026-04-17 09:53 | -6.97324 | 110.37637 | 5 ft | 22 kts | 129° |
| 2026-04-17 09:53 | -6.97428 | 110.37756 | 6 ft | 23 kts | 131° |
| 2026-04-17 09:53 | -6.97537 | 110.37886 | 6 ft | 25 kts | 130° |
| 2026-04-17 09:53 | -6.97629 | 110.37995 | 6 ft | 15 kts | 130° |
| 2026-04-17 09:54 | -6.97667 | 110.38049 | 6 ft | 7 kts | 110° |
| 2026-04-17 09:54 | -6.97689 | 110.38104 | 7 ft | 10 kts | 135° |
| 2026-04-17 09:54 | -6.97716 | 110.38096 | 6 ft | 1 kts | 279° |
| 2026-04-17 09:54 | -6.97713 | 110.38095 | 6 ft | 1 kts | 307° |
| 2026-04-17 09:55 | -6.97693 | 110.38069 | 7 ft | 16 kts | 309° |
| 2026-04-17 09:55 | -6.97451 | 110.37782 | 6 ft | 95 kts | 310° |
| 2026-04-17 09:55 | -6.96872 | 110.37098 | 18 ft | 158 kts | 311° |
| 2026-04-17 09:55 | -6.96171 | 110.36245 | 725 ft | 157 kts | 312° |
| 2026-04-17 09:56 | -6.95452 | 110.35401 | 1421 ft | 159 kts | 313° |
| 2026-04-17 09:56 | -6.94774 | 110.34458 | 1961 ft | 177 kts | 298° |
| 2026-04-17 09:56 | -6.94127 | 110.33331 | 2432 ft | 196 kts | 304° |
| 2026-04-17 09:56 | -6.93321 | 110.32122 | 2799 ft | 221 kts | 306° |
| 2026-04-17 09:57 | -6.92406 | 110.30771 | 3281 ft | 245 kts | 304° |
| 2026-04-17 09:57 | -6.91421 | 110.29273 | 3787 ft | 269 kts | 303° |
| 2026-04-17 09:57 | -6.90375 | 110.27644 | 4522 ft | 281 kts | 303° |
| 2026-04-17 09:57 | -6.89320 | 110.25981 | 5479 ft | 284 kts | 302° |
| 2026-04-17 09:58 | -6.88250 | 110.24289 | 6382 ft | 289 kts | 302° |
| 2026-04-17 09:58 | -6.87181 | 110.22596 | 7264 ft | 291 kts | 302° |
| 2026-04-17 09:58 | -6.86087 | 110.20869 | 8131 ft | 295 kts | 302° |
| 2026-04-17 09:58 | -6.84973 | 110.19110 | 9000 ft | 299 kts | 302° |
| 2026-04-17 09:59 | -6.83848 | 110.17336 | 9862 ft | 302 kts | 302° |
| 2026-04-17 09:59 | -6.82700 | 110.15524 | 10445 ft | 316 kts | 302° |
| 2026-04-17 09:59 | -6.81470 | 110.13584 | 10699 ft | 340 kts | 302° |
| 2026-04-17 09:59 | -6.80164 | 110.11523 | 11062 ft | 356 kts | 302° |
| 2026-04-17 10:00 | -6.78822 | 110.09407 | 11759 ft | 361 kts | 302° |
| 2026-04-17 10:00 | -6.77480 | 110.07292 | 12501 ft | 365 kts | 302° |
| 2026-04-17 10:00 | -6.76107 | 110.05129 | 13214 ft | 369 kts | 302° |
| 2026-04-17 10:00 | -6.74716 | 110.02936 | 13877 ft | 374 kts | 302° |
| 2026-04-17 10:01 | -6.73309 | 110.00717 | 14496 ft | 378 kts | 302° |
| 2026-04-17 10:01 | -6.71887 | 109.98474 | 15094 ft | 382 kts | 302° |
| 2026-04-17 10:01 | -6.70444 | 109.96200 | 15683 ft | 387 kts | 302° |
| 2026-04-17 10:01 | -6.68986 | 109.93901 | 16265 ft | 391 kts | 302° |
| 2026-04-17 10:02 | -6.67509 | 109.91575 | 16847 ft | 396 kts | 303° |
| 2026-04-17 10:02 | -6.66038 | 109.89257 | 17410 ft | 400 kts | 303° |
| 2026-04-17 10:02 | -6.64533 | 109.86888 | 17975 ft | 404 kts | 303° |
| 2026-04-17 10:02 | -6.63013 | 109.84493 | 18464 ft | 408 kts | 303° |
| 2026-04-17 10:03 | -6.61480 | 109.82079 | 18982 ft | 410 kts | 303° |
| 2026-04-17 10:03 | -6.59938 | 109.79651 | 19479 ft | 413 kts | 303° |
| 2026-04-17 10:03 | -6.58383 | 109.77204 | 19971 ft | 417 kts | 303° |
| 2026-04-17 10:03 | -6.56813 | 109.74732 | 20450 ft | 420 kts | 302° |
| 2026-04-17 10:04 | -6.55231 | 109.72242 | 20941 ft | 423 kts | 302° |
| 2026-04-17 10:04 | -6.53641 | 109.69740 | 21415 ft | 426 kts | 302° |
| 2026-04-17 10:04 | -6.52039 | 109.67218 | 21888 ft | 429 kts | 302° |
| 2026-04-17 10:04 | -6.50421 | 109.64673 | 22350 ft | 433 kts | 302° |
| 2026-04-17 10:05 | -6.48815 | 109.62147 | 22798 ft | 436 kts | 302° |
| 2026-04-17 10:05 | -6.47175 | 109.59566 | 23248 ft | 439 kts | 302° |
| 2026-04-17 10:05 | -6.45523 | 109.56967 | 23656 ft | 442 kts | 302° |
| 2026-04-17 10:05 | -6.43862 | 109.54357 | 24036 ft | 444 kts | 302° |
| 2026-04-17 10:06 | -6.42193 | 109.51732 | 24413 ft | 447 kts | 302° |
| 2026-04-17 10:06 | -6.40509 | 109.49085 | 24783 ft | 450 kts | 302° |
| 2026-04-17 10:06 | -6.38821 | 109.46433 | 25141 ft | 452 kts | 302° |
| 2026-04-17 10:06 | -6.37117 | 109.43755 | 25500 ft | 455 kts | 302° |
| 2026-04-17 10:07 | -6.35409 | 109.41071 | 25856 ft | 458 kts | 302° |
| 2026-04-17 10:07 | -6.33687 | 109.38365 | 26206 ft | 460 kts | 302° |
| 2026-04-17 10:07 | -6.31958 | 109.35650 | 26551 ft | 463 kts | 302° |
| 2026-04-17 10:07 | -6.30292 | 109.32870 | 26882 ft | 465 kts | 297° |
| 2026-04-17 10:08 | -6.28949 | 109.29902 | 27206 ft | 467 kts | 291° |
| 2026-04-17 10:08 | -6.27754 | 109.26856 | 27529 ft | 470 kts | 291° |
| 2026-04-17 10:08 | -6.26544 | 109.23800 | 27848 ft | 472 kts | 291° |
| 2026-04-17 10:08 | -6.25320 | 109.20721 | 28151 ft | 475 kts | 291° |
| 2026-04-17 10:09 | -6.24106 | 109.17671 | 28445 ft | 477 kts | 291° |
| 2026-04-17 10:09 | -6.22869 | 109.14566 | 28764 ft | 479 kts | 291° |
| 2026-04-17 10:09 | -6.21628 | 109.11449 | 29055 ft | 482 kts | 291° |
| 2026-04-17 10:09 | -6.20380 | 109.08314 | 29339 ft | 484 kts | 291° |
| 2026-04-17 10:10 | -6.19125 | 109.05163 | 29634 ft | 486 kts | 291° |
| 2026-04-17 10:10 | -6.17865 | 109.02001 | 29924 ft | 488 kts | 291° |
| 2026-04-17 10:10 | -6.16602 | 108.98830 | 30190 ft | 490 kts | 291° |
| 2026-04-17 10:11 | -6.14061 | 108.92454 | 30753 ft | 493 kts | 291° |
| 2026-04-17 10:11 | -6.11515 | 108.86066 | 30854 ft | 492 kts | 291° |
| 2026-04-17 10:12 | -6.08970 | 108.79686 | 30853 ft | 492 kts | 291° |
| 2026-04-17 10:12 | -6.06406 | 108.73309 | 30853 ft | 491 kts | 292° |
| 2026-04-17 10:13 | -6.03849 | 108.66945 | 30855 ft | 491 kts | 292° |
| 2026-04-17 10:13 | -6.01307 | 108.60577 | 30852 ft | 491 kts | 292° |
| 2026-04-17 10:14 | -5.98767 | 108.54206 | 30852 ft | 491 kts | 292° |
| 2026-04-17 10:14 | -5.96698 | 108.47683 | 30850 ft | 490 kts | 280° |
| 2026-04-17 10:15 | -5.96202 | 108.40931 | 30849 ft | 488 kts | 269° |
| 2026-04-17 10:15 | -5.96210 | 108.34115 | 30849 ft | 488 kts | 269° |
| 2026-04-17 10:16 | -5.96200 | 108.27283 | 30846 ft | 488 kts | 269° |
| 2026-04-17 10:16 | -5.96191 | 108.20466 | 30852 ft | 488 kts | 269° |
| 2026-04-17 10:17 | -5.96171 | 108.13637 | 30853 ft | 488 kts | 270° |
| 2026-04-17 10:17 | -5.96140 | 108.06851 | 30852 ft | 488 kts | 270° |
| 2026-04-17 10:18 | -5.96128 | 108.00029 | 30853 ft | 488 kts | 270° |
| 2026-04-17 10:18 | -5.96127 | 107.93224 | 30687 ft | 486 kts | 269° |
| 2026-04-17 10:18 | -5.96131 | 107.89823 | 30050 ft | 488 kts | 269° |
| 2026-04-17 10:19 | -5.96136 | 107.86396 | 28997 ft | 493 kts | 269° |
| 2026-04-17 10:19 | -5.96138 | 107.82931 | 27990 ft | 496 kts | 269° |
| 2026-04-17 10:19 | -5.96140 | 107.79491 | 27430 ft | 489 kts | 269° |
| 2026-04-17 10:19 | -5.96141 | 107.76093 | 26843 ft | 482 kts | 269° |
| 2026-04-17 10:20 | -5.96142 | 107.72744 | 26193 ft | 477 kts | 269° |
| 2026-04-17 10:20 | -5.96143 | 107.69495 | 25961 ft | 463 kts | 269° |
| 2026-04-17 10:20 | -5.96143 | 107.66312 | 25793 ft | 448 kts | 269° |
| 2026-04-17 10:20 | -5.96144 | 107.63212 | 25378 ft | 441 kts | 269° |
| 2026-04-17 10:21 | -5.96147 | 107.60130 | 24822 ft | 438 kts | 269° |
| 2026-04-17 10:21 | -5.96150 | 107.57079 | 24315 ft | 434 kts | 269° |
| 2026-04-17 10:21 | -5.96152 | 107.54094 | 23813 ft | 431 kts | 269° |
| 2026-04-17 10:21 | -5.96154 | 107.51103 | 23225 ft | 425 kts | 269° |
| 2026-04-17 10:22 | -5.96155 | 107.48148 | 22370 ft | 420 kts | 269° |
| 2026-04-17 10:22 | -5.96156 | 107.45229 | 21563 ft | 415 kts | 269° |
| 2026-04-17 10:22 | -5.96157 | 107.42339 | 20769 ft | 410 kts | 269° |
| 2026-04-17 10:22 | -5.96158 | 107.39513 | 20290 ft | 398 kts | 269° |
| 2026-04-17 10:23 | -5.96158 | 107.36780 | 19759 ft | 388 kts | 269° |
| 2026-04-17 10:23 | -5.96158 | 107.34092 | 19314 ft | 382 kts | 269° |
| 2026-04-17 10:23 | -5.96159 | 107.31423 | 18980 ft | 380 kts | 269° |
| 2026-04-17 10:23 | -5.96157 | 107.28780 | 18705 ft | 378 kts | 269° |
| 2026-04-17 10:24 | -5.96154 | 107.26120 | 18181 ft | 381 kts | 269° |
| 2026-04-17 10:24 | -5.96150 | 107.23466 | 17664 ft | 379 kts | 269° |
| 2026-04-17 10:24 | -5.96146 | 107.20833 | 17105 ft | 374 kts | 269° |
| 2026-04-17 10:24 | -5.96142 | 107.18237 | 16375 ft | 370 kts | 269° |
| 2026-04-17 10:25 | -5.96138 | 107.15660 | 15695 ft | 366 kts | 269° |
| 2026-04-17 10:25 | -5.96134 | 107.13143 | 15019 ft | 363 kts | 269° |
| 2026-04-17 10:25 | -5.96130 | 107.10627 | 14390 ft | 358 kts | 269° |
| 2026-04-17 10:25 | -5.96126 | 107.08161 | 14029 ft | 345 kts | 269° |
| 2026-04-17 10:26 | -5.96122 | 107.05791 | 13904 ft | 340 kts | 269° |
| 2026-04-17 10:26 | -5.96118 | 107.03361 | 13853 ft | 352 kts | 269° |
| 2026-04-17 10:26 | -5.96114 | 107.00888 | 13700 ft | 354 kts | 269° |
| 2026-04-17 10:26 | -5.96109 | 106.98420 | 13362 ft | 353 kts | 270° |
| 2026-04-17 10:27 | -5.96104 | 106.95961 | 12900 ft | 351 kts | 270° |
| 2026-04-17 10:27 | -5.96099 | 106.93522 | 12469 ft | 348 kts | 269° |
| 2026-04-17 10:27 | -5.96091 | 106.91096 | 12003 ft | 346 kts | 271° |
| 2026-04-17 10:27 | -5.96062 | 106.88689 | 11514 ft | 344 kts | 271° |
| 2026-04-17 10:28 | -5.96034 | 106.86331 | 11108 ft | 340 kts | 271° |
| 2026-04-17 10:28 | -5.96018 | 106.83973 | 10708 ft | 336 kts | 270° |
| 2026-04-17 10:28 | -5.96012 | 106.81638 | 10311 ft | 332 kts | 270° |
| 2026-04-17 10:28 | -5.96069 | 106.79350 | 10063 ft | 324 kts | 262° |
| 2026-04-17 10:29 | -5.96599 | 106.77187 | 9956 ft | 316 kts | 249° |
| 2026-04-17 10:29 | -5.97451 | 106.75179 | 9856 ft | 309 kts | 246° |
| 2026-04-17 10:29 | -5.98293 | 106.73201 | 9518 ft | 307 kts | 246° |
| 2026-04-17 10:29 | -5.99115 | 106.71217 | 9089 ft | 306 kts | 247° |
| 2026-04-17 10:30 | -5.99922 | 106.69245 | 8679 ft | 304 kts | 247° |
| 2026-04-17 10:30 | -6.00719 | 106.67282 | 8272 ft | 302 kts | 247° |
| 2026-04-17 10:30 | -6.01504 | 106.65346 | 7996 ft | 293 kts | 247° |
| 2026-04-17 10:30 | -6.02240 | 106.63528 | 7844 ft | 275 kts | 247° |
| 2026-04-17 10:31 | -6.02941 | 106.61798 | 7691 ft | 259 kts | 247° |
| 2026-04-17 10:31 | -6.03612 | 106.60143 | 7346 ft | 253 kts | 247° |
| 2026-04-17 10:31 | -6.04277 | 106.58506 | 6889 ft | 253 kts | 247° |
| 2026-04-17 10:31 | -6.04941 | 106.56872 | 6443 ft | 252 kts | 247° |
| 2026-04-17 10:32 | -6.05597 | 106.55252 | 6012 ft | 249 kts | 247° |
| 2026-04-17 10:32 | -6.06236 | 106.53674 | 5769 ft | 236 kts | 247° |
| 2026-04-17 10:32 | -6.06834 | 106.52193 | 5627 ft | 222 kts | 247° |
| 2026-04-17 10:32 | -6.07406 | 106.50781 | 5380 ft | 213 kts | 246° |
| 2026-04-17 10:33 | -6.07959 | 106.49412 | 4910 ft | 213 kts | 246° |
| 2026-04-17 10:33 | -6.08519 | 106.48030 | 4404 ft | 213 kts | 246° |
| 2026-04-17 10:33 | -6.08889 | 106.47116 | 4072 ft | 213 kts | 246° |
| 2026-04-17 10:33 | -6.09627 | 106.45291 | 3475 ft | 211 kts | 247° |
| 2026-04-17 10:34 | -6.10172 | 106.43945 | 3238 ft | 210 kts | 247° |
| 2026-04-17 10:34 | -6.10619 | 106.43054 | 3071 ft | 211 kts | 231° |
| 2026-04-17 10:34 | -6.12224 | 106.42121 | 2823 ft | 205 kts | 183° |
| 2026-04-17 10:34 | -6.13153 | 106.42178 | 2722 ft | 197 kts | 168° |
| 2026-04-17 10:35 | -6.14453 | 106.42434 | 2546 ft | 184 kts | 165° |
| 2026-04-17 10:35 | -6.15687 | 106.42709 | 2164 ft | 182 kts | 165° |
| 2026-04-17 10:35 | -6.16868 | 106.43153 | 2037 ft | 181 kts | 141° |
| 2026-04-17 10:35 | -6.17618 | 106.44149 | 2020 ft | 180 kts | 108° |
| 2026-04-17 10:36 | -6.17793 | 106.45369 | 2021 ft | 179 kts | 94° |
| 2026-04-17 10:36 | -6.17933 | 106.46881 | 2002 ft | 144 kts | 95° |
| 2026-04-17 10:36 | -6.18001 | 106.47543 | 2016 ft | 146 kts | 95° |
| 2026-04-17 10:36 | -6.17979 | 106.48879 | 2019 ft | 147 kts | 78° |
| 2026-04-17 10:37 | -6.17802 | 106.49551 | 2013 ft | 147 kts | 71° |
| 2026-04-17 10:37 | -6.17440 | 106.50497 | 2015 ft | 138 kts | 68° |
| 2026-04-17 10:37 | -6.17092 | 106.51351 | 1998 ft | 132 kts | 69° |
| 2026-04-17 10:37 | -6.16743 | 106.52227 | 2000 ft | 135 kts | 69° |
| 2026-04-17 10:38 | -6.16408 | 106.53068 | 2000 ft | 130 kts | 69° |
| 2026-04-17 10:38 | -6.16067 | 106.53925 | 1987 ft | 133 kts | 69° |
| 2026-04-17 10:38 | -6.15726 | 106.54780 | 1838 ft | 131 kts | 68° |
| 2026-04-17 10:38 | -6.15383 | 106.55640 | 1683 ft | 132 kts | 68° |
| 2026-04-17 10:39 | -6.15044 | 106.56492 | 1547 ft | 131 kts | 68° |
| 2026-04-17 10:39 | -6.14706 | 106.57340 | 1372 ft | 130 kts | 67° |
| 2026-04-17 10:39 | -6.14371 | 106.58180 | 1216 ft | 128 kts | 68° |
| 2026-04-17 10:39 | -6.14039 | 106.59015 | 1045 ft | 129 kts | 68° |
| 2026-04-17 10:40 | -6.13702 | 106.59859 | 893 ft | 128 kts | 67° |
| 2026-04-17 10:40 | -6.13371 | 106.60688 | 755 ft | 128 kts | 67° |
| 2026-04-17 10:40 | -6.13043 | 106.61514 | 589 ft | 127 kts | 67° |
| 2026-04-17 10:40 | -6.12727 | 106.62317 | 394 ft | 118 kts | 67° |
| 2026-04-17 10:41 | -6.12424 | 106.63095 | 255 ft | 123 kts | 67° |
| 2026-04-17 10:41 | -6.12102 | 106.63894 | 104 ft | 124 kts | 66° |
| 2026-04-17 10:41 | -6.11785 | 106.64669 | 39 ft | 107 kts | 68° |
| 2026-04-17 10:41 | -6.11623 | 106.65079 | 40 ft | 40 kts | 68° |
| 2026-04-17 10:42 | -6.11523 | 106.65328 | 39 ft | 31 kts | 69° |
| 2026-04-17 10:42 | -6.11453 | 106.65504 | 37 ft | 21 kts | 67° |
| 2026-04-17 10:42 | -6.11413 | 106.65646 | 39 ft | 22 kts | 82° |
| 2026-04-17 10:42 | -6.11421 | 106.65808 | 38 ft | 20 kts | 104° |
| 2026-04-17 10:43 | -6.11473 | 106.65880 | 38 ft | 3 kts | 148° |
| 2026-04-17 10:43 | -6.11487 | 106.65879 | 38 ft | 2 kts | 221° |
| 2026-04-17 10:43 | -6.11504 | 106.65859 | 38 ft | 6 kts | 234° |
| 2026-04-17 10:43 | -6.11526 | 106.65811 | 35 ft | 9 kts | 248° |
| 2026-04-17 10:44 | -6.11556 | 106.65737 | 36 ft | 13 kts | 248° |
| 2026-04-17 10:44 | -6.11596 | 106.65639 | 38 ft | 17 kts | 248° |
| 2026-04-17 10:44 | -6.11640 | 106.65527 | 38 ft | 18 kts | 249° |
| 2026-04-17 10:44 | -6.11691 | 106.65398 | 37 ft | 21 kts | 248° |
| 2026-04-17 10:45 | -6.11736 | 106.65287 | 38 ft | 13 kts | 248° |
| 2026-04-17 10:45 | -6.11764 | 106.65237 | 36 ft | 0 kts | 225° |
| 2026-04-17 10:45 | -6.11786 | 106.65227 | 38 ft | 8 kts | 200° |
| 2026-04-17 10:46 | -6.11846 | 106.65250 | 38 ft | 8 kts | 158° |
| 2026-04-17 10:46 | -6.11902 | 106.65296 | 38 ft | 13 kts | 127° |
| 2026-04-17 10:46 | -6.11948 | 106.65313 | 38 ft | 8 kts | 200° |
| 2026-04-17 10:46 | -6.11979 | 106.65285 | 38 ft | 0 kts | 225° |